createdAt,value
2019-05-19T00:00:47.910Z,98298.19
2019-05-19T00:03:23.117Z,98291.97
2019-05-19T00:05:56.773Z,98296.47
2019-05-19T00:08:30.416Z,98292.45
2019-05-19T00:11:05.875Z,98299.33
2019-05-19T00:13:39.823Z,98286.95
2019-05-19T00:16:13.326Z,98291.89
2019-05-19T00:18:48.156Z,98283.27
2019-05-19T00:21:23.301Z,98276.91
2019-05-19T00:23:59.683Z,98268.84
2019-05-19T00:26:31.906Z,98258.11
2019-05-19T00:29:05.596Z,98246.44
2019-05-19T00:31:39.369Z,98246.86
2019-05-19T00:34:14.751Z,98235.89
2019-05-19T00:36:49.656Z,98244.72
2019-05-19T00:39:24.600Z,98246.44
2019-05-19T00:41:59.612Z,98254.48
2019-05-19T00:44:32.995Z,98249.85
2019-05-19T00:47:08.085Z,98238.09
2019-05-19T00:49:43.792Z,98236.73
2019-05-19T00:52:18.690Z,98227.95
2019-05-19T00:54:54.474Z,98228.84
2019-05-19T00:57:30.853Z,98217.03
2019-05-19T01:00:05.041Z,98205.08
2019-05-19T01:02:40.069Z,98210.14
2019-05-19T01:05:14.956Z,98204.50
2019-05-19T01:07:51.427Z,98193.47
2019-05-19T01:10:25.442Z,98181.02
2019-05-19T01:13:01.244Z,98167.06
2019-05-19T01:15:35.028Z,98167.00
2019-05-19T01:18:10.062Z,98171.56
2019-05-19T01:20:45.425Z,98173.63
2019-05-19T01:23:19.328Z,98170.34
2019-05-19T01:25:53.000Z,98173.07
2019-05-19T01:28:26.984Z,98164.73
2019-05-19T01:31:02.212Z,98160.22
2019-05-19T01:33:36.785Z,98159.98
2019-05-19T01:36:11.860Z,98156.68
2019-05-19T01:38:45.243Z,98160.62
2019-05-19T01:41:18.745Z,98151.84
2019-05-19T01:43:52.118Z,98148.28
2019-05-19T01:46:25.800Z,98140.84
2019-05-19T01:48:59.424Z,98126.58
2019-05-19T01:51:32.822Z,98118.86
2019-05-19T01:54:06.345Z,98118.78
2019-05-19T01:56:41.042Z,98112.22
2019-05-19T01:59:15.920Z,98109.13
2019-05-19T02:04:57.974Z,98105.25
2019-05-19T02:07:31.771Z,98098.83
2019-05-19T02:10:06.526Z,98106.05
2019-05-19T02:12:40.248Z,98099.36
2019-05-19T02:15:15.289Z,98091.55
2019-05-19T02:17:48.652Z,98081.87
2019-05-19T02:20:32.623Z,98088.06
2019-05-19T02:22:57.123Z,98078.93
2019-05-19T02:25:30.868Z,98077.86
2019-05-19T02:28:04.695Z,98085.27
2019-05-19T02:30:41.295Z,98080.83
2019-05-19T02:33:14.815Z,98070.08
2019-05-19T02:35:48.385Z,98067.61
2019-05-19T02:38:24.661Z,98058.55
2019-05-19T02:40:59.738Z,98059.80
2019-05-19T02:43:34.314Z,98057.07
2019-05-19T02:46:10.037Z,98053.58
2019-05-19T02:48:45.239Z,98056.05
2019-05-19T02:51:19.362Z,98066.88
2019-05-19T02:53:54.418Z,98049.30
2019-05-19T02:56:30.503Z,98051.80
2019-05-19T02:59:13.748Z,98054.77
2019-05-19T03:01:47.697Z,98054.98
2019-05-19T03:04:22.797Z,98056.34
2019-05-19T03:06:56.578Z,98056.13
2019-05-19T03:09:31.617Z,98062.92
2019-05-19T03:12:05.437Z,98061.66
2019-05-19T03:14:42.144Z,98052.44
2019-05-19T03:17:17.258Z,98029.39
2019-05-19T03:19:52.692Z,98029.39
2019-05-19T03:22:26.446Z,98012.95
2019-05-19T03:25:05.710Z,98014.92
2019-05-19T03:27:40.300Z,97996.88
2019-05-19T03:30:16.185Z,97993.86
2019-05-19T03:32:51.277Z,97986.02
2019-05-19T03:35:24.937Z,97963.68
2019-05-19T03:37:59.847Z,97943.44
2019-05-19T03:40:33.565Z,97923.45
2019-05-19T03:43:07.206Z,97918.45
2019-05-19T03:45:40.715Z,97908.09
2019-05-19T03:48:14.190Z,97909.51
2019-05-19T03:50:47.983Z,97915.48
2019-05-19T03:53:24.119Z,97924.68
2019-05-19T03:55:57.568Z,97930.58
2019-05-19T03:58:33.800Z,97940.40
2019-05-19T04:01:09.849Z,97942.64
2019-05-19T04:03:45.235Z,97932.69
2019-05-19T04:06:20.324Z,97927.98
2019-05-19T04:08:57.223Z,97917.20
2019-05-19T04:11:30.920Z,97900.31
2019-05-19T04:14:04.968Z,97897.66
2019-05-19T04:16:38.643Z,97893.92
2019-05-19T04:19:12.230Z,97889.36
2019-05-19T04:21:49.279Z,97892.22
2019-05-19T04:24:22.261Z,97886.13
2019-05-19T04:26:55.845Z,97880.61
2019-05-19T04:29:29.833Z,97875.92
2019-05-19T04:32:03.662Z,97872.16
2019-05-19T04:34:37.011Z,97864.70
2019-05-19T04:37:12.360Z,97858.45
2019-05-19T04:39:47.002Z,97850.37
2019-05-19T04:42:20.776Z,97849.47
2019-05-19T04:44:54.220Z,97850.18
2019-05-19T04:47:28.188Z,97850.41
2019-05-19T04:50:01.746Z,97847.40
2019-05-19T04:52:35.603Z,97837.36
2019-05-19T04:55:09.305Z,97824.61
2019-05-19T04:57:42.878Z,97831.73
2019-05-19T05:00:35.920Z,97819.89
2019-05-19T05:03:10.905Z,97821.19
2019-05-19T05:05:45.848Z,97815.16
2019-05-19T05:08:29.615Z,97816.92
2019-05-19T05:10:53.948Z,97812.13
2019-05-19T05:13:27.584Z,97804.39
2019-05-19T05:16:00.945Z,97801.50
2019-05-19T05:18:35.842Z,97792.77
2019-05-19T05:21:10.771Z,97785.61
2019-05-19T05:23:44.317Z,97781.45
2019-05-19T05:26:17.794Z,97773.92
2019-05-19T05:28:51.043Z,97769.39
2019-05-19T05:31:26.021Z,97759.80
2019-05-19T05:33:59.774Z,97750.34
2019-05-19T05:36:33.231Z,97740.80
2019-05-19T05:39:07.446Z,97728.91
2019-05-19T05:41:49.437Z,97728.44
2019-05-19T05:44:24.376Z,97723.64
2019-05-19T05:46:59.475Z,97721.87
2019-05-19T05:49:35.079Z,97707.83
2019-05-19T05:52:13.573Z,97706.78
2019-05-19T05:54:48.317Z,97703.01
2019-05-19T05:57:24.269Z,97689.39
2019-05-19T05:59:58.752Z,97691.23
2019-05-19T06:02:36.501Z,97697.70
2019-05-19T06:05:10.673Z,97694.16
2019-05-19T06:07:53.922Z,97699.39
2019-05-19T06:10:28.962Z,97696.61
2019-05-19T06:13:06.448Z,97692.26
2019-05-19T06:15:42.547Z,97691.97
2019-05-19T06:18:18.264Z,97705.55
2019-05-19T06:20:53.109Z,97712.23
2019-05-19T06:23:26.984Z,97714.30
2019-05-19T06:26:02.670Z,97705.99
2019-05-19T06:28:37.531Z,97705.03
2019-05-19T06:31:11.159Z,97695.88
2019-05-19T06:33:48.869Z,97697.61
2019-05-19T06:36:23.852Z,97681.23
2019-05-19T06:39:04.686Z,97686.09
2019-05-19T06:41:40.403Z,97672.30
2019-05-19T06:44:15.278Z,97679.05
2019-05-19T06:46:48.666Z,97665.00
2019-05-19T06:49:22.397Z,97660.34
2019-05-19T06:51:56.104Z,97648.24
2019-05-19T06:54:29.729Z,97632.27
2019-05-19T06:57:03.179Z,97632.64
2019-05-19T06:59:36.758Z,97618.36
2019-05-19T07:02:11.597Z,97614.42
2019-05-19T07:04:46.440Z,97614.11
2019-05-19T07:07:20.046Z,97596.27
2019-05-19T07:12:45.407Z,97549.45
2019-05-19T07:15:18.915Z,97526.53
2019-05-19T07:17:54.918Z,97540.44
2019-05-19T07:20:45.046Z,97529.95
2019-05-19T07:23:27.899Z,97538.84
2019-05-19T07:25:55.109Z,97529.09
2019-05-19T07:28:28.779Z,97529.03
2019-05-19T07:31:04.232Z,97533.39
2019-05-19T07:33:37.644Z,97532.20
2019-05-19T07:36:11.462Z,97517.36
2019-05-19T07:38:46.719Z,97499.09
2019-05-19T07:41:21.858Z,97495.47
2019-05-19T07:43:55.612Z,97502.44
2019-05-19T07:46:30.627Z,97511.69
2019-05-19T07:49:04.374Z,97502.42
2019-05-19T07:51:38.840Z,97493.86
2019-05-19T07:54:12.815Z,97489.05
2019-05-19T07:56:47.575Z,97491.11
2019-05-19T07:59:22.889Z,97490.52
2019-05-19T08:01:58.231Z,97483.98
2019-05-19T08:04:31.823Z,97477.02
2019-05-19T08:07:05.521Z,97469.02
2019-05-19T08:09:41.536Z,97468.59
2019-05-19T08:12:19.772Z,97447.06
2019-05-19T08:14:54.246Z,97456.41
2019-05-19T08:17:29.653Z,97443.16
2019-05-19T08:20:04.508Z,97440.59
2019-05-19T08:22:38.203Z,97435.44
2019-05-19T08:25:12.089Z,97429.55
2019-05-19T08:27:47.081Z,97418.64
2019-05-19T08:30:22.842Z,97399.05
2019-05-19T08:32:56.647Z,97406.77
2019-05-19T08:35:31.692Z,97380.14
2019-05-19T08:38:05.109Z,97370.67
2019-05-19T08:40:40.163Z,97346.80
2019-05-19T08:43:13.748Z,97350.97
2019-05-19T08:45:47.405Z,97353.14
2019-05-19T08:48:21.596Z,97340.12
2019-05-19T08:50:55.406Z,97355.41
2019-05-19T08:53:29.236Z,97353.77
2019-05-19T08:56:03.070Z,97345.84
2019-05-19T08:58:38.981Z,97346.13
2019-05-19T09:01:14.187Z,97343.43
2019-05-19T09:03:47.670Z,97353.67
2019-05-19T09:06:23.560Z,97343.95
2019-05-19T09:08:57.103Z,97337.22
2019-05-19T09:11:31.571Z,97327.28
2019-05-19T09:14:07.583Z,97313.95
2019-05-19T09:16:41.403Z,97306.09
2019-05-19T09:19:15.357Z,97303.50
2019-05-19T09:21:50.247Z,97301.78
2019-05-19T09:24:30.510Z,97294.95
2019-05-19T09:27:02.791Z,97274.41
2019-05-19T09:29:36.414Z,97268.70
2019-05-19T09:32:11.318Z,97265.14
2019-05-19T09:34:46.539Z,97267.28
2019-05-19T09:37:20.280Z,97256.02
2019-05-19T09:39:53.858Z,97250.81
2019-05-19T09:45:29.398Z,97232.67
2019-05-19T09:48:18.285Z,97231.38
2019-05-19T09:50:52.074Z,97212.37
2019-05-19T09:53:27.034Z,97209.42
2019-05-19T09:56:02.248Z,97171.25
2019-05-19T09:58:37.521Z,97197.12
2019-05-19T10:01:11.171Z,97184.70
2019-05-19T10:03:52.295Z,97189.03
2019-05-19T10:06:29.051Z,97179.93
2019-05-19T10:09:11.800Z,97174.16
2019-05-19T10:12:07.753Z,97163.16
2019-05-19T10:14:41.453Z,97157.42
2019-05-19T10:17:15.475Z,97159.01
2019-05-19T10:19:50.593Z,97152.09
2019-05-19T10:22:24.594Z,97153.70
2019-05-19T10:25:19.859Z,97153.62
2019-05-19T10:27:40.608Z,97169.25
2019-05-19T10:30:16.530Z,97255.04
2019-05-19T10:32:50.092Z,97294.59
2019-05-19T10:35:25.845Z,97293.66
2019-05-19T10:37:59.109Z,97313.87
2019-05-19T10:40:32.930Z,97314.19
2019-05-19T10:43:08.061Z,97332.44
2019-05-19T10:45:41.891Z,97339.26
2019-05-19T10:48:15.692Z,97345.91
2019-05-19T10:50:49.117Z,97357.41
2019-05-19T10:53:22.826Z,97360.57
2019-05-19T10:55:57.733Z,97381.82
2019-05-19T10:58:31.393Z,97385.64
2019-05-19T11:01:06.715Z,97376.72
2019-05-19T11:03:42.129Z,97362.91
2019-05-19T11:06:15.842Z,97370.15
2019-05-19T11:08:50.052Z,97390.78
2019-05-19T11:11:25.102Z,97395.66
2019-05-19T11:13:58.914Z,97397.26
2019-05-19T11:16:32.437Z,97388.59
2019-05-19T11:19:26.296Z,97388.80
2019-05-19T11:22:00.765Z,97386.88
2019-05-19T11:24:35.506Z,97396.45
2019-05-19T11:27:10.833Z,97401.14
2019-05-19T11:29:44.198Z,97400.88
2019-05-19T11:32:17.654Z,97407.82
2019-05-19T11:34:52.414Z,97399.35
2019-05-19T11:37:26.941Z,97401.11
2019-05-19T11:40:00.619Z,97397.22
2019-05-19T11:42:37.552Z,97403.69
2019-05-19T11:45:13.175Z,97397.29
2019-05-19T11:47:46.688Z,97392.38
2019-05-19T11:50:21.668Z,97402.86
2019-05-19T11:52:55.504Z,97389.55
2019-05-19T11:55:29.228Z,97380.30
2019-05-19T11:58:06.240Z,97398.05
2019-05-19T12:00:40.011Z,97403.77
2019-05-19T12:03:13.463Z,97400.06
2019-05-19T12:05:47.214Z,97382.50
2019-05-19T12:08:23.322Z,97371.06
2019-05-19T12:10:57.384Z,97371.95
2019-05-19T12:13:34.906Z,97366.80
2019-05-19T12:16:08.914Z,97371.33
2019-05-19T12:18:43.980Z,97382.84
2019-05-19T12:21:18.836Z,97370.00
2019-05-19T12:23:52.357Z,97349.06
2019-05-19T12:26:26.203Z,97345.74
2019-05-19T12:28:59.899Z,97354.73
2019-05-19T12:31:37.168Z,97352.57
2019-05-19T12:34:10.667Z,97355.55
2019-05-19T12:36:46.014Z,97352.80
2019-05-19T12:39:20.925Z,97362.86
2019-05-19T12:41:56.023Z,97360.69
2019-05-19T12:44:29.490Z,97339.66
2019-05-19T12:47:04.452Z,97335.58
2019-05-19T12:49:37.990Z,97335.83
2019-05-19T12:52:13.065Z,97308.44
2019-05-19T12:54:46.758Z,97306.58
2019-05-19T12:57:21.321Z,97313.66
2019-05-19T12:59:55.262Z,97309.13
2019-05-19T13:02:29.094Z,97301.30
2019-05-19T13:08:01.266Z,97320.00
2019-05-19T13:10:36.199Z,97298.75
2019-05-19T13:13:30.075Z,97292.95
2019-05-19T13:16:05.094Z,97298.92
2019-05-19T13:18:57.701Z,97290.13
2019-05-19T13:21:32.697Z,97235.16
2019-05-19T13:24:07.815Z,97261.55
2019-05-19T13:26:55.617Z,97257.44
2019-05-19T13:29:17.198Z,97280.16
2019-05-19T13:31:50.696Z,97323.27
2019-05-19T13:34:25.929Z,97280.94
2019-05-19T13:37:00.906Z,97267.38
2019-05-19T13:39:38.050Z,97302.55
2019-05-19T13:42:11.820Z,97283.67
2019-05-19T13:44:47.220Z,97264.66
2019-05-19T13:47:21.915Z,97281.94
2019-05-19T13:49:55.797Z,97270.91
2019-05-19T13:52:30.914Z,97280.02
2019-05-19T13:55:04.486Z,97283.16
2019-05-19T13:57:38.084Z,97302.35
2019-05-19T14:00:12.589Z,97300.52
2019-05-19T14:02:47.753Z,97283.65
2019-05-19T14:05:21.246Z,97284.84
2019-05-19T14:07:55.146Z,97253.16
2019-05-19T14:10:28.935Z,97268.62
2019-05-19T14:13:03.951Z,97246.08
2019-05-19T14:15:40.121Z,97224.38
2019-05-19T14:18:15.324Z,97237.94
2019-05-19T14:20:50.260Z,97238.99
2019-05-19T14:23:25.366Z,97255.89
2019-05-19T14:26:00.508Z,97269.60
2019-05-19T14:28:35.911Z,97255.72
2019-05-19T14:31:11.131Z,97260.14
2019-05-19T14:33:46.182Z,97256.32
2019-05-19T14:36:23.441Z,97247.50
2019-05-19T14:38:57.258Z,97243.84
2019-05-19T14:41:33.896Z,97239.70
2019-05-19T14:44:09.226Z,97221.47
2019-05-19T14:46:43.031Z,97211.77
2019-05-19T14:49:18.183Z,97221.66
2019-05-19T14:51:53.117Z,97256.27
2019-05-19T14:54:28.191Z,97264.73
2019-05-19T14:57:02.938Z,97271.25
2019-05-19T14:59:38.383Z,97243.22
2019-05-19T15:02:12.929Z,97228.66
2019-05-19T15:04:46.557Z,97236.66
2019-05-19T15:07:20.447Z,97245.67
2019-05-19T15:09:54.961Z,97245.58
2019-05-19T15:12:30.238Z,97263.03
2019-05-19T15:15:04.261Z,97251.70
2019-05-19T15:17:37.917Z,97251.29
2019-05-19T15:20:13.088Z,97247.31
2019-05-19T15:22:46.810Z,97253.46
2019-05-19T15:25:20.315Z,97255.53
2019-05-19T15:28:00.217Z,97235.77
2019-05-19T15:30:30.305Z,97232.14
2019-05-19T15:33:03.946Z,97229.73
2019-05-19T15:35:39.071Z,97222.83
2019-05-19T15:38:13.995Z,97216.84
2019-05-19T15:40:47.600Z,97220.42
2019-05-19T15:43:21.258Z,97201.36
2019-05-19T15:45:54.799Z,97199.31
2019-05-19T15:48:29.631Z,97204.24
2019-05-19T15:51:03.127Z,97207.50
2019-05-19T15:53:36.726Z,97197.58
2019-05-19T15:56:10.620Z,97206.79
2019-05-19T15:58:44.325Z,97205.54
2019-05-19T16:01:17.722Z,97182.14
2019-05-19T16:03:51.551Z,97172.34
2019-05-19T16:06:26.159Z,97155.00
2019-05-19T16:09:00.809Z,97160.22
2019-05-19T16:11:34.595Z,97165.53
2019-05-19T16:14:09.719Z,97145.95
2019-05-19T16:16:44.605Z,97134.91
2019-05-19T16:19:18.264Z,97119.31
2019-05-19T16:21:53.152Z,97130.98
2019-05-19T16:24:26.930Z,97126.30
2019-05-19T16:27:00.681Z,97107.81
2019-05-19T16:29:35.475Z,97119.87
2019-05-19T16:32:09.056Z,97123.65
2019-05-19T16:34:43.956Z,97129.35
2019-05-19T16:37:18.944Z,97113.06
2019-05-19T16:39:53.992Z,97114.66
2019-05-19T16:42:28.436Z,97082.22
2019-05-19T16:45:02.376Z,97090.40
2019-05-19T16:47:37.579Z,97077.84
2019-05-19T16:50:13.736Z,97092.06
2019-05-19T16:52:47.405Z,97089.55
2019-05-19T16:55:21.252Z,97095.38
2019-05-19T16:57:56.103Z,97085.11
2019-05-19T17:00:30.101Z,97091.73
2019-05-19T17:03:05.388Z,97094.16
2019-05-19T17:05:40.718Z,97103.73
2019-05-19T17:08:35.618Z,97077.84
2019-05-19T17:11:18.147Z,97083.39
2019-05-19T17:13:45.439Z,97084.45
2019-05-19T17:16:19.227Z,97067.11
2019-05-19T17:18:54.776Z,97078.78
2019-05-19T17:21:30.041Z,97085.14
2019-05-19T17:24:03.852Z,97072.59
2019-05-19T17:26:37.586Z,97066.97
2019-05-19T17:29:12.861Z,97071.61
2019-05-19T17:31:47.935Z,97057.56
2019-05-19T17:34:22.750Z,97055.17
2019-05-19T17:36:58.622Z,97057.64
2019-05-19T17:39:33.670Z,97058.98
2019-05-19T17:42:07.448Z,97063.50
2019-05-19T17:44:41.289Z,97065.25
2019-05-19T17:47:16.413Z,97051.63
2019-05-19T17:49:51.197Z,97056.16
2019-05-19T17:52:26.535Z,97047.87
2019-05-19T17:55:01.626Z,97041.02
2019-05-19T17:57:36.569Z,97035.55
2019-05-19T18:00:13.202Z,97037.59
2019-05-19T18:02:48.299Z,97030.14
2019-05-19T18:05:22.631Z,97028.32
2019-05-19T18:07:57.339Z,97025.23
2019-05-19T18:10:31.930Z,97016.19
2019-05-19T18:13:05.611Z,97008.55
2019-05-19T18:15:39.221Z,97009.42
2019-05-19T18:18:12.767Z,97007.59
2019-05-19T18:20:50.123Z,97011.14
2019-05-19T18:23:25.021Z,96998.47
2019-05-19T18:25:58.725Z,96980.52
2019-05-19T18:28:32.505Z,96978.34
2019-05-19T18:31:06.245Z,96972.45
2019-05-19T18:33:41.802Z,96964.94
2019-05-19T18:36:16.815Z,96980.83
2019-05-19T18:38:52.414Z,96973.27
2019-05-19T18:41:26.078Z,96968.02
2019-05-19T18:44:00.943Z,96965.67
2019-05-19T18:46:34.572Z,96964.25
2019-05-19T18:49:10.449Z,96965.66
2019-05-19T18:51:44.139Z,96963.42
2019-05-19T18:54:25.131Z,96965.05
2019-05-19T18:56:52.527Z,96962.22
2019-05-19T18:59:27.285Z,96960.25
2019-05-19T19:02:02.501Z,96970.45
2019-05-19T19:04:37.153Z,96976.75
2019-05-19T19:07:15.315Z,96975.16
2019-05-19T19:09:50.543Z,96961.97
2019-05-19T19:12:24.237Z,96958.20
2019-05-19T19:14:58.313Z,96956.00
2019-05-19T19:17:32.268Z,96946.65
2019-05-19T19:20:07.082Z,96950.43
2019-05-19T19:22:41.861Z,96941.72
2019-05-19T19:25:15.499Z,96934.95
2019-05-19T19:27:50.380Z,96944.19
2019-05-19T19:30:26.476Z,96940.13
2019-05-19T19:32:59.984Z,96940.15
2019-05-19T19:35:39.265Z,96930.34
2019-05-19T19:38:11.512Z,96939.58
2019-05-19T19:40:46.372Z,96940.14
2019-05-19T19:43:21.173Z,96948.69
2019-05-19T19:45:56.715Z,96944.14
2019-05-19T19:48:31.721Z,96934.45
2019-05-19T19:51:06.547Z,96926.60
2019-05-19T19:53:40.118Z,96929.33
2019-05-19T19:56:13.670Z,96930.59
2019-05-19T19:58:49.070Z,96921.50
2019-05-19T20:01:23.842Z,96932.42
2019-05-19T20:03:59.341Z,96927.87
2019-05-19T20:06:34.411Z,96928.20
2019-05-19T20:09:11.051Z,96941.05
2019-05-19T20:11:46.001Z,96936.29
2019-05-19T20:14:19.549Z,96935.26
2019-05-19T20:16:54.487Z,96931.35
2019-05-19T20:19:28.377Z,96932.86
2019-05-19T20:22:03.581Z,96929.56
2019-05-19T20:24:36.988Z,96938.07
2019-05-19T20:27:10.712Z,96920.24
2019-05-19T20:29:45.787Z,96924.75
2019-05-19T20:32:19.657Z,96914.52
2019-05-19T20:34:54.633Z,96921.89
2019-05-19T20:37:29.571Z,96910.73
2019-05-19T20:40:03.217Z,96907.25
2019-05-19T20:42:37.708Z,96898.84
2019-05-19T20:45:12.989Z,96899.48
2019-05-19T20:47:48.642Z,96898.11
2019-05-19T20:50:22.347Z,96882.55
2019-05-19T20:52:55.886Z,96892.91
2019-05-19T20:55:29.436Z,96882.22
2019-05-19T20:58:04.327Z,96880.37
2019-05-19T21:00:49.898Z,96874.03
2019-05-19T21:03:15.269Z,96873.23
2019-05-19T21:05:50.176Z,96871.05
2019-05-19T21:08:23.862Z,96870.00
2019-05-19T21:10:57.255Z,96879.66
2019-05-19T21:13:32.245Z,96874.13
2019-05-19T21:16:05.699Z,96869.72
2019-05-19T21:18:40.509Z,96866.19
2019-05-19T21:21:15.370Z,96870.02
2019-05-19T21:23:52.385Z,96861.52
2019-05-19T21:26:46.963Z,96858.91
2019-05-19T21:29:40.201Z,96846.52
2019-05-19T21:32:15.429Z,96840.45
2019-05-19T21:34:50.229Z,96832.77
2019-05-19T21:37:25.197Z,96846.29
2019-05-19T21:40:00.334Z,96842.64
2019-05-19T21:42:34.121Z,96841.74
2019-05-19T21:45:09.633Z,96842.68
2019-05-19T21:47:43.971Z,96841.41
2019-05-19T21:50:17.606Z,96846.70
2019-05-19T21:52:51.344Z,96835.56
2019-05-19T21:55:26.569Z,96834.25
2019-05-19T21:58:01.472Z,96836.18
2019-05-19T22:00:35.150Z,96835.05
2019-05-19T22:03:08.950Z,96837.66
2019-05-19T22:05:52.850Z,96828.24
2019-05-19T22:08:17.098Z,96824.81
2019-05-19T22:10:50.866Z,96828.58
2019-05-19T22:13:24.376Z,96811.18
2019-05-19T22:16:17.513Z,96819.96
2019-05-19T22:18:51.324Z,96820.50
2019-05-19T22:21:26.323Z,96810.95
2019-05-19T22:24:01.190Z,96806.52
2019-05-19T22:26:34.959Z,96811.88
2019-05-19T22:29:10.122Z,96813.47
2019-05-19T22:31:45.332Z,96808.59
2019-05-19T22:34:20.166Z,96808.59
2019-05-19T22:36:55.265Z,96808.80
2019-05-19T22:39:30.242Z,96810.85
2019-05-19T22:42:03.749Z,96806.18
2019-05-19T22:44:38.593Z,96801.20
2019-05-19T22:47:12.271Z,96800.63
2019-05-19T22:49:46.094Z,96799.36
2019-05-19T22:52:20.499Z,96787.53
2019-05-19T22:54:54.380Z,96773.44
2019-05-19T22:57:28.137Z,96763.28
2019-05-19T23:00:01.902Z,96747.69
2019-05-19T23:02:35.360Z,96775.27
2019-05-19T23:05:10.020Z,96782.77
2019-05-19T23:07:45.522Z,96771.58
2019-05-19T23:10:38.595Z,96778.34
2019-05-19T23:13:12.474Z,96768.02
2019-05-19T23:15:47.265Z,96773.02
2019-05-19T23:18:22.228Z,96775.03
2019-05-19T23:20:55.682Z,96768.97
2019-05-19T23:23:30.348Z,96751.04
2019-05-19T23:26:05.516Z,96748.06
2019-05-19T23:28:39.477Z,96762.75
2019-05-19T23:31:13.220Z,96751.39
2019-05-19T23:33:48.132Z,96757.86
2019-05-19T23:36:21.685Z,96753.30
2019-05-19T23:39:15.422Z,96765.08
2019-05-19T23:41:49.166Z,96760.61
2019-05-19T23:44:22.949Z,96761.55
2019-05-19T23:46:58.190Z,96757.67
2019-05-19T23:49:33.399Z,96746.61
2019-05-19T23:52:07.292Z,96755.95
2019-05-19T23:54:42.116Z,96748.56
2019-05-19T23:57:17.208Z,96743.45
2019-05-19T23:59:51.468Z,96727.87
